Accueil
METAR-TAF:

METAR-TAF

Aéroports :

Pirassununga, São Paulo, Brésil

latitude: 21-59S, longitude: 047-20W, altitude: 597 m

Observation

Le bulletin a été fait il y a 44 minutes, à 15:00 UTC
Vent 4 kt de sud-est
Température 26°C
Humidité 61%
Pression 1016 hPa
Visibilité 10 km ou plus
Nuages épars à une hauteur de 3500 ft

METAR: SBYS 081500Z 13004KT 9999 SCT035 26/18 Q1016

Heure: 12:44 (15:44 UTC)

Prévision

Le bulletin a été fait il y a 6 heures et 44 minutes, à 09:00 UTC
Prévision valable du 08 à 12 UTC au 08 à 24 UTC
Vent 9 kt de nord/nord-ouest
Visibilité: 8000 m
Nuages fragmentés à une hauteur de 1600 ft
Evoluant progressivement
du 08 à 14 UTC au 08 à 16 UTC
Nuages épars à une hauteur de 2000 ft

TAF: SBYS 080900Z 0812/0824 33009KT 8000 BKN016 TN21/0812Z TX29/0817Z BECMG 0814/0816 SCT020 RMK PEI

Observations et prévisions météorologiques de plus de 4000 aéroports (messages METAR et TAF).

Les stations disponibles sont représentées par des disques jaunes et rouges sur la carte.

Passer la souris dessus pour voir le nom de la station.

Cliquer dessus pour voir les observations et prévisions météorologiques.

Pour changer de carte: cliquez sur les boutons verts avec une croix noire pour zoomer, sur le bouton vert avec un tiret pour effectuer un zoom arrière, ou sur les flèches vertes pour les cartes adjacentes.


METAR-TAF: